Time;durP1;ratioP1;P1;durP2;ratioP2;P2;SDS_P1;SDS_P2;PMS_P1;PMS_P2;Temp;Humidity;BMP_temperature;BMP_pressure;BME280_temperature;BME280_humidity;BME280_pressure;Samples;Min_cycle;Max_cycle;Signal;HPM_P1;HPM_P2
2023/04/25 00:01:44;;;;;;;;;3.00;1.00;;;;;12.71;67.77;100769.34;5004198;28;45524;-60
2023/04/25 00:04:11;;;;;;;;;3.75;2.25;;;;;12.59;67.29;100743.03;5016932;28;45557;-60
2023/04/25 00:06:37;;;;;;;;;5.50;4.00;;;;;12.70;67.53;100764.91;5009668;28;45583;-60
2023/04/25 00:09:10;;;;;;;;;2.00;2.00;;;;;12.68;67.35;100766.78;5002496;28;45369;-60
2023/04/25 00:11:36;;;;;;;;;3.50;3.50;;;;;12.54;67.11;100743.22;5008414;28;45586;-60
2023/04/25 00:14:02;;;;;;;;;1.50;1.25;;;;;12.64;67.05;100761.59;5015914;28;45941;-60
2023/04/25 00:16:29;;;;;;;;;3.00;3.00;;;;;12.64;67.22;100757.13;5011378;28;45336;-60
2023/04/25 00:18:54;;;;;;;;;4.75;4.75;;;;;12.51;67.07;100740.69;5004959;28;45455;-60
2023/04/25 00:21:20;;;;;;;;;1.50;1.50;;;;;12.54;67.48;100745.03;5008607;28;45512;-60
2023/04/25 00:23:46;;;;;;;;;0.75;0.00;;;;;12.62;67.55;100763.50;4989282;28;45487;-60
2023/04/25 00:26:12;;;;;;;;;4.00;3.00;;;;;12.52;67.60;100747.78;5010192;28;45570;-60
2023/04/25 00:28:37;;;;;;;;;4.25;3.25;;;;;12.48;67.53;100735.47;5010484;28;45480;-60
2023/04/25 00:31:03;;;;;;;;;4.00;4.00;;;;;12.54;67.47;100753.94;4998933;28;45532;-60
2023/04/25 00:33:29;;;;;;;;;3.25;3.00;;;;;12.41;67.63;100728.59;5005034;28;46298;-60
2023/04/25 00:35:55;;;;;;;;;3.50;2.25;;;;;12.52;67.78;100761.16;5014612;28;45474;-60
2023/04/25 00:38:20;;;;;;;;;5.00;5.00;;;;;12.44;67.58;100752.56;5002790;28;45476;-60
2023/04/25 00:40:46;;;;;;;;;4.00;4.00;;;;;12.52;67.53;100757.63;5010785;28;45492;-60
2023/04/25 00:43:11;;;;;;;;;3.00;2.25;;;;;12.49;67.65;100755.94;4989607;28;46974;-60
2023/04/25 00:45:39;;;;;;;;;4.25;4.00;;;;;12.47;68.04;100749.78;4991840;28;45298;-60
2023/04/25 00:48:04;;;;;;;;;4.25;4.25;;;;;12.44;67.41;100759.72;5006232;28;45355;-60
2023/04/25 00:50:30;;;;;;;;;4.00;4.00;;;;;12.46;67.55;100758.72;4978349;28;45680;-60
2023/04/25 00:52:56;;;;;;;;;3.75;3.75;;;;;12.44;67.47;100746.34;5009630;28;46294;-60
2023/04/25 00:55:21;;;;;;;;;6.75;4.00;;;;;12.39;67.70;100749.19;5012572;28;45498;-60
2023/04/25 00:57:47;;;;;;;;;4.75;4.75;;;;;12.45;67.71;100759.69;4985298;28;45322;-60
2023/04/25 01:00:14;;;;;;;;;5.00;3.75;;;;;12.42;67.63;100752.63;5009407;28;45426;-60
2023/04/25 01:02:41;;;;;;;;;4.00;4.00;;;;;12.38;67.67;100753.69;5014002;28;46256;-60
2023/04/25 01:05:07;;;;;;;;;4.25;4.25;;;;;12.37;67.84;100759.97;5013122;28;45713;-60
2023/04/25 01:07:33;;;;;;;;;3.25;3.25;;;;;12.33;67.87;100754.78;5006438;28;45289;-60
2023/04/25 01:09:59;;;;;;;;;6.50;5.00;;;;;12.31;67.57;100756.66;5007931;28;45266;-60
2023/04/25 01:12:24;;;;;;;;;5.00;4.50;;;;;12.26;67.32;100748.81;4997169;28;47414;-60
2023/04/25 01:14:50;;;;;;;;;4.00;4.00;;;;;12.29;67.82;100755.84;5007360;28;45327;-60
2023/04/25 01:17:15;;;;;;;;;7.00;4.25;;;;;12.20;67.39;100747.25;5001840;28;45518;-60
2023/04/25 01:19:41;;;;;;;;;9.50;5.50;;;;;12.29;67.98;100756.72;5004330;28;45490;-60
2023/04/25 01:22:07;;;;;;;;;6.00;6.00;;;;;12.29;68.26;100753.19;5006222;28;45465;-60
2023/04/25 01:24:33;;;;;;;;;8.25;6.50;;;;;12.29;67.95;100747.81;5016959;28;45400;-60
2023/04/25 01:27:00;;;;;;;;;5.00;4.25;;;;;12.27;68.10;100747.03;4996793;28;45322;-60
2023/04/25 01:29:26;;;;;;;;;4.75;4.25;;;;;12.23;68.18;100749.81;5008920;28;45528;-60
2023/04/25 01:31:52;;;;;;;;;5.00;3.50;;;;;12.21;68.07;100746.34;5006270;28;45469;-60
2023/04/25 01:34:18;;;;;;;;;8.00;8.00;;;;;12.22;68.14;100747.19;5008545;28;45314;-60
2023/04/25 01:36:43;;;;;;;;;7.25;6.50;;;;;12.20;68.31;100752.59;5004491;28;45402;-60
2023/04/25 01:39:09;;;;;;;;;5.75;5.75;;;;;12.19;67.59;100750.00;5018756;28;45409;-60
2023/04/25 01:41:35;;;;;;;;;6.75;5.00;;;;;12.17;67.98;100747.38;5006417;28;46101;-60
2023/04/25 01:44:01;;;;;;;;;5.25;5.25;;;;;12.17;68.15;100746.50;5017132;28;45297;-60
2023/04/25 01:46:27;;;;;;;;;2.25;2.25;;;;;12.11;68.31;100742.28;5007264;28;45562;-60
2023/04/25 01:48:53;;;;;;;;;9.75;8.25;;;;;12.13;67.76;100743.09;5005526;28;45443;-60
2023/04/25 01:51:18;;;;;;;;;6.25;6.00;;;;;12.08;68.11;100729.00;5003127;28;46310;-60
2023/04/25 01:53:44;;;;;;;;;4.75;4.75;;;;;12.11;68.18;100738.72;5011796;28;45388;-60
2023/04/25 01:56:09;;;;;;;;;6.25;5.25;;;;;12.20;68.16;100746.38;5003647;28;45535;-60
2023/04/25 01:58:35;;;;;;;;;4.75;4.75;;;;;12.21;68.06;100753.47;5005492;28;45416;-60
2023/04/25 02:01:00;;;;;;;;;9.50;7.25;;;;;12.21;67.79;100751.69;5009297;28;46091;-60
2023/04/25 02:03:25;;;;;;;;;8.25;7.25;;;;;12.16;67.92;100748.31;5003983;28;45396;-60
2023/04/25 02:05:51;;;;;;;;;13.00;7.50;;;;;12.21;67.85;100751.69;5013030;28;45574;-60
2023/04/25 02:08:17;;;;;;;;;6.50;6.00;;;;;12.08;67.83;100737.03;5017679;28;45438;-60
2023/04/25 02:10:43;;;;;;;;;6.75;5.00;;;;;12.15;67.97;100753.72;5008972;28;46902;-60
2023/04/25 02:13:08;;;;;;;;;8.00;6.25;;;;;12.14;68.08;100757.31;5011254;28;45320;-60
2023/04/25 02:15:33;;;;;;;;;6.00;6.00;;;;;12.14;68.09;100757.31;5002446;28;45810;-60
2023/04/25 02:18:00;;;;;;;;;6.00;5.00;;;;;12.11;68.11;100752.97;5002558;28;45457;-60
2023/04/25 02:20:26;;;;;;;;;7.75;6.50;;;;;12.14;68.04;100762.69;5005748;28;46110;-60
2023/04/25 02:22:51;;;;;;;;;6.75;6.75;;;;;12.14;67.83;100768.88;5009086;28;45610;-60
2023/04/25 02:25:19;;;;;;;;;7.25;5.25;;;;;12.12;67.70;100762.72;4986796;28;45641;-60
2023/04/25 02:27:45;;;;;;;;;8.50;6.25;;;;;12.14;67.50;100762.69;5009511;28;45408;-60
2023/04/25 02:30:11;;;;;;;;;5.25;5.00;;;;;12.17;67.85;100767.91;5007485;28;46286;-60
2023/04/25 02:32:37;;;;;;;;;10.25;7.50;;;;;12.17;67.48;100767.91;5009383;28;45432;-60
2023/04/25 02:35:06;;;;;;;;;6.00;5.25;;;;;12.13;67.64;100758.25;5009354;28;45328;-60
2023/04/25 02:37:32;;;;;;;;;8.75;6.50;;;;;12.09;67.39;100753.94;5010210;28;45438;-60
2023/04/25 02:39:58;;;;;;;;;12.50;9.25;;;;;12.17;67.61;100771.44;5012924;28;45555;-60
2023/04/25 02:42:23;;;;;;;;;11.00;8.25;;;;;12.13;67.47;100764.50;5007538;28;45331;-60
2023/04/25 02:44:49;;;;;;;;;5.75;5.50;;;;;12.13;67.24;100768.94;5016606;28;45349;-60
2023/04/25 02:47:14;;;;;;;;;7.75;7.00;;;;;12.05;66.93;100763.91;5012969;28;45564;-60
2023/04/25 02:49:40;;;;;;;;;7.25;6.50;;;;;12.08;67.62;100776.28;5005447;28;45455;-60
2023/04/25 02:52:05;;;;;;;;;9.00;9.00;;;;;12.03;66.95;100772.00;5006902;28;45432;-60
2023/04/25 02:54:30;;;;;;;;;10.75;7.00;;;;;12.00;67.43;100781.94;5012474;28;45313;-60
2023/04/25 02:56:56;;;;;;;;;11.25;7.50;;;;;12.00;67.66;100788.16;4999913;28;48055;-60
2023/04/25 02:59:21;;;;;;;;;9.25;7.75;;;;;11.99;67.72;100789.06;4980329;28;48306;-60
2023/04/25 03:01:46;;;;;;;;;7.75;7.25;;;;;11.92;67.68;100782.22;5014860;28;45439;-60
2023/04/25 03:04:12;;;;;;;;;7.00;7.00;;;;;11.86;67.67;100772.59;5005378;28;45340;-60
2023/04/25 03:06:37;;;;;;;;;7.00;7.00;;;;;11.87;67.69;100787.69;5017289;28;45436;-60
2023/04/25 03:09:03;;;;;;;;;9.75;8.25;;;;;11.91;67.54;100788.50;5004886;28;45663;-60
2023/04/25 03:11:29;;;;;;;;;6.00;6.00;;;;;11.83;67.62;100780.72;5021188;28;45630;-60
2023/04/25 03:13:54;;;;;;;;;8.50;6.75;;;;;11.77;67.69;100762.22;5008640;28;45238;-60
2023/04/25 03:16:19;;;;;;;;;7.00;7.00;;;;;11.85;67.57;100768.16;5008364;28;45468;-60
2023/04/25 03:18:44;;;;;;;;;8.75;7.25;;;;;11.86;67.54;100774.38;5013051;28;46276;-60
2023/04/25 03:21:10;;;;;;;;;9.75;8.50;;;;;11.78;67.40;100753.28;4984554;28;45371;-60
2023/04/25 03:23:35;;;;;;;;;9.50;7.25;;;;;11.86;67.38;100769.91;5012150;28;45273;-60
2023/04/25 03:26:00;;;;;;;;;8.00;6.50;;;;;11.94;67.31;100785.69;4991593;28;45539;-60
2023/04/25 03:28:26;;;;;;;;;10.25;8.75;;;;;11.93;67.19;100777.72;5012792;28;45281;-60
2023/04/25 03:30:51;;;;;;;;;10.50;9.00;;;;;11.90;67.32;100777.84;5013116;28;49269;-60
2023/04/25 03:33:16;;;;;;;;;11.25;10.00;;;;;11.85;67.77;100769.97;5008193;28;45341;-60
2023/04/25 03:35:42;;;;;;;;;11.00;10.75;;;;;11.86;67.34;100771.69;5012336;28;45286;-60
2023/04/25 03:38:08;;;;;;;;;10.25;10.00;;;;;11.87;67.80;100765.44;5013927;28;45510;-60
2023/04/25 03:40:33;;;;;;;;;10.50;10.25;;;;;11.92;67.58;100774.19;5006938;28;45377;-60
2023/04/25 03:42:58;;;;;;;;;10.25;10.00;;;;;11.92;67.82;100778.69;5008386;28;45529;-60
2023/04/25 03:45:24;;;;;;;;;10.75;8.50;;;;;11.92;67.57;100789.38;5017433;28;52385;-60
2023/04/25 03:47:50;;;;;;;;;11.75;9.00;;;;;11.84;67.47;100769.13;5006872;28;46088;-60
2023/04/25 03:50:15;;;;;;;;;8.50;8.50;;;;;11.89;67.82;100776.06;5011738;28;45439;-60
2023/04/25 03:52:40;;;;;;;;;11.75;6.75;;;;;11.89;67.78;100781.44;5014483;28;45872;-60
2023/04/25 03:55:06;;;;;;;;;10.75;8.50;;;;;11.90;67.88;100785.88;5011533;28;45583;-60
2023/04/25 03:57:31;;;;;;;;;9.50;6.00;;;;;11.76;67.75;100765.84;5013926;28;46304;-60
2023/04/25 03:59:57;;;;;;;;;9.25;7.25;;;;;11.88;67.52;100783.25;5008247;28;45386;-60
2023/04/25 04:02:22;;;;;;;;;8.25;8.00;;;;;11.77;67.54;100764.91;5011239;28;45299;-60
2023/04/25 04:04:47;;;;;;;;;12.75;10.00;;;;;11.87;67.57;100782.34;5011270;28;48757;-60
2023/04/25 04:07:13;;;;;;;;;10.50;9.00;;;;;11.82;67.55;100783.47;5014972;28;45547;-60
2023/04/25 04:09:38;;;;;;;;;10.50;8.00;;;;;11.85;67.15;100789.56;5010992;28;45360;-60
2023/04/25 04:12:04;;;;;;;;;10.25;9.00;;;;;11.77;67.24;100775.59;5014649;28;45356;-60
2023/04/25 04:14:29;;;;;;;;;8.50;7.50;;;;;11.75;67.47;100780.13;5016283;28;45320;-60
2023/04/25 04:16:55;;;;;;;;;8.75;8.75;;;;;11.66;67.76;100757.28;5003779;28;45353;-60
2023/04/25 04:19:20;;;;;;;;;11.25;9.00;;;;;11.84;67.81;100790.50;5007801;28;45343;-60
2023/04/25 04:21:45;;;;;;;;;12.25;11.00;;;;;11.79;67.99;100781.75;5016230;28;45298;-60
2023/04/25 04:24:11;;;;;;;;;12.25;7.00;;;;;11.85;67.42;100797.59;4998411;28;45397;-60
2023/04/25 04:26:37;;;;;;;;;10.50;10.00;;;;;11.73;67.69;100779.31;5000007;28;46078;-60
2023/04/25 04:29:02;;;;;;;;;11.25;9.00;;;;;11.81;67.29;100789.72;4994281;28;45989;-60
2023/04/25 04:31:29;;;;;;;;;13.25;9.25;;;;;11.79;67.67;100797.81;4995732;28;45421;-60
2023/04/25 04:33:55;;;;;;;;;12.25;10.00;;;;;11.90;67.92;100815.28;4984217;28;45498;-60
2023/04/25 04:36:21;;;;;;;;;9.25;9.00;;;;;11.81;67.82;100812.00;5002336;28;45480;-60
2023/04/25 04:38:47;;;;;;;;;11.00;10.00;;;;;11.81;67.31;100809.34;5018905;28;45487;-60
2023/04/25 04:41:12;;;;;;;;;11.00;10.25;;;;;11.79;67.90;100805.81;5007516;28;45547;-60
2023/04/25 04:43:39;;;;;;;;;6.75;6.25;;;;;11.82;67.68;100823.56;5017255;28;46669;-60
2023/04/25 04:46:05;;;;;;;;;10.75;9.75;;;;;11.77;67.42;100821.06;5003969;28;45302;-60
2023/04/25 04:48:34;;;;;;;;;10.50;10.25;;;;;11.67;68.13;100811.63;5004486;28;46011;-60
2023/04/25 04:51:00;;;;;;;;;8.50;6.75;;;;;11.58;68.05;100815.50;5013949;28;45419;-60
2023/04/25 04:53:25;;;;;;;;;9.50;8.75;;;;;11.65;68.07;100841.09;5009264;28;45507;-60
2023/04/25 04:55:51;;;;;;;;;11.75;11.00;;;;;11.65;68.52;100835.75;5007170;28;46201;-60
2023/04/25 04:58:16;;;;;;;;;12.75;12.75;;;;;11.65;68.54;100826.84;5017520;28;45548;-60
2023/04/25 05:00:41;;;;;;;;;12.00;11.00;;;;;11.66;68.48;100840.19;5006929;28;45581;-60
2023/04/25 05:03:07;;;;;;;;;11.50;9.50;;;;;11.61;68.44;100841.25;5009164;28;45457;-60
2023/04/25 05:05:32;;;;;;;;;12.00;10.00;;;;;11.58;68.15;100842.25;5006853;28;46662;-60
2023/04/25 05:07:57;;;;;;;;;11.50;11.50;;;;;11.56;68.37;100840.53;5011802;28;45273;-60
2023/04/25 05:10:23;;;;;;;;;11.25;11.25;;;;;11.55;68.41;100836.13;5015734;28;45233;-60
2023/04/25 05:12:48;;;;;;;;;11.25;9.00;;;;;11.65;68.43;100856.28;5009394;28;45433;-61
2023/04/25 05:15:14;;;;;;;;;13.25;10.75;;;;;11.65;68.31;100856.28;5010037;28;45313;-68
2023/04/25 05:17:39;;;;;;;;;12.25;11.25;;;;;11.47;68.33;100831.03;4989172;28;45310;-66
2023/04/25 05:20:07;;;;;;;;;12.00;11.00;;;;;11.42;68.37;100844.56;5005258;28;45511;-66
2023/04/25 05:22:33;;;;;;;;;11.75;10.25;;;;;11.35;68.54;100829.66;4983376;28;45407;-66
2023/04/25 05:24:58;;;;;;;;;9.50;9.50;;;;;11.61;68.33;100884.91;4971998;28;46977;-66
2023/04/25 05:27:23;;;;;;;;;12.00;12.00;;;;;11.29;68.35;100838.78;5004704;28;45492;-66
2023/04/25 05:29:49;;;;;;;;;13.00;12.00;;;;;11.55;68.79;100884.25;4984249;28;48037;-66
2023/04/25 05:32:15;;;;;;;;;15.50;11.00;;;;;11.29;68.64;100856.59;4974256;28;45381;-66
2023/04/25 05:34:41;;;;;;;;;11.75;10.50;;;;;11.59;68.55;100900.13;4988215;28;47700;-66
2023/04/25 05:37:07;;;;;;;;;13.75;12.50;;;;;11.42;68.24;100873.09;4997242;28;45400;-66
2023/04/25 05:39:32;;;;;;;;;10.75;9.75;;;;;11.53;68.49;100895.00;4998152;28;45374;-66
2023/04/25 05:41:58;;;;;;;;;14.25;11.75;;;;;11.58;68.28;100906.41;4999296;28;45270;-66
2023/04/25 05:44:23;;;;;;;;;10.25;10.25;;;;;11.59;68.63;100905.47;5005474;28;45487;-65
2023/04/25 05:46:49;;;;;;;;;12.00;12.00;;;;;11.47;68.50;100890.72;5005258;28;45308;-65
2023/04/25 05:49:14;;;;;;;;;11.50;11.50;;;;;11.42;68.22;100881.97;5008989;28;45408;-60
2023/04/25 05:51:39;;;;;;;;;12.00;12.00;;;;;11.65;68.30;100923.13;4985438;28;45404;-60
2023/04/25 05:54:05;;;;;;;;;11.50;10.25;;;;;11.60;68.18;100915.25;4994012;28;45672;-60
2023/04/25 05:56:30;;;;;;;;;17.25;13.50;;;;;11.74;68.37;100938.84;5010419;28;45333;-60
2023/04/25 05:58:56;;;;;;;;;15.50;14.00;;;;;11.50;68.27;100895.97;4994007;28;45728;-60
2023/04/25 06:01:22;;;;;;;;;12.75;12.75;;;;;11.77;68.18;100936.06;5005958;28;45408;-60
2023/04/25 06:03:48;;;;;;;;;14.25;14.00;;;;;11.70;68.27;100925.66;4999140;28;46567;-60
2023/04/25 06:06:13;;;;;;;;;16.00;12.75;;;;;11.52;68.36;100908.41;5004702;28;45421;-60
2023/04/25 06:08:39;;;;;;;;;14.50;13.00;;;;;11.77;68.25;100946.75;5007142;28;45378;-60
2023/04/25 06:11:04;;;;;;;;;13.25;13.25;;;;;11.69;68.43;100932.78;5006916;28;45620;-60
2023/04/25 06:13:30;;;;;;;;;13.50;11.75;;;;;11.73;68.44;100938.88;5007436;28;45600;-60
2023/04/25 06:15:55;;;;;;;;;12.25;12.00;;;;;11.71;68.59;100938.06;5000346;28;45440;-60
2023/04/25 06:18:20;;;;;;;;;18.50;15.25;;;;;11.56;69.11;100913.63;5007442;28;45503;-60
2023/04/25 06:20:46;;;;;;;;;13.00;11.00;;;;;11.58;69.13;100926.94;5002086;28;45790;-60
2023/04/25 06:23:12;;;;;;;;;18.00;13.50;;;;;11.67;69.00;100948.00;4992050;28;45563;-60
2023/04/25 06:25:38;;;;;;;;;11.75;11.25;;;;;11.43;68.70;100906.94;4987175;28;45298;-60
2023/04/25 06:28:03;;;;;;;;;12.25;11.00;;;;;11.64;68.46;100943.66;4989376;28;45541;-60
2023/04/25 06:30:29;;;;;;;;;12.75;12.75;;;;;11.67;68.67;100948.00;4979230;28;45254;-60
2023/04/25 06:32:55;;;;;;;;;12.00;10.25;;;;;11.60;68.51;100935.78;4983879;28;45490;-60
2023/04/25 06:35:20;;;;;;;;;13.25;11.00;;;;;11.63;68.85;100949.03;4989223;28;45416;-60
2023/04/25 06:37:46;;;;;;;;;16.50;13.00;;;;;11.52;68.76;100943.16;4999969;28;45358;-60
2023/04/25 06:40:11;;;;;;;;;13.50;13.50;;;;;11.59;68.76;100944.72;5009014;28;45492;-60
2023/04/25 06:42:36;;;;;;;;;8.25;8.25;;;;;11.61;68.72;100945.53;5012195;28;45307;-60
2023/04/25 06:45:02;;;;;;;;;9.25;9.25;;;;;11.66;68.84;100949.81;5002785;28;45291;-60
2023/04/25 06:47:29;;;;;;;;;11.50;11.50;;;;;11.72;68.40;100955.88;5002872;28;45436;-60
2023/04/25 06:49:54;;;;;;;;;12.00;10.75;;;;;11.74;68.55;100960.22;5007049;28;45450;-60
2023/04/25 06:52:20;;;;;;;;;9.50;8.00;;;;;11.72;68.04;100972.78;4997332;28;45535;-60
2023/04/25 06:54:45;;;;;;;;;12.25;10.25;;;;;11.64;68.34;100951.66;4994665;28;45399;-60
2023/04/25 06:57:11;;;;;;;;;9.50;9.50;;;;;11.63;68.47;100957.06;4994168;28;45781;-60
2023/04/25 06:59:36;;;;;;;;;5.50;5.50;;;;;11.74;68.29;100983.44;4991161;28;45624;-60
2023/04/25 07:02:01;;;;;;;;;10.25;9.50;;;;;11.66;67.95;100962.28;5007186;28;45459;-60
2023/04/25 07:04:27;;;;;;;;;10.75;8.25;;;;;11.75;68.05;100986.06;4992435;28;45541;-60
2023/04/25 07:06:52;;;;;;;;;12.50;11.00;;;;;11.70;67.51;100987.16;4986941;28;45390;-60
2023/04/25 07:09:18;;;;;;;;;10.25;8.25;;;;;11.70;67.99;100985.34;4990819;28;45393;-60
2023/04/25 07:11:43;;;;;;;;;8.25;7.00;;;;;11.73;67.67;100997.72;4999530;28;45618;-60
2023/04/25 07:14:08;;;;;;;;;12.50;9.50;;;;;11.68;67.81;100997.91;5001848;28;45252;-60
2023/04/25 07:16:33;;;;;;;;;4.00;4.00;;;;;11.62;67.83;100998.94;5012668;28;45490;-60
2023/04/25 07:19:01;;;;;;;;;11.25;8.00;;;;;11.49;67.25;100987.78;4999311;28;45375;-60
2023/04/25 07:21:27;;;;;;;;;10.50;10.50;;;;;11.55;67.55;101007.25;5006000;28;46091;-59
2023/04/25 07:23:52;;;;;;;;;12.75;12.25;;;;;11.54;67.68;101008.16;5002276;28;45432;-61
2023/04/25 07:26:17;;;;;;;;;13.75;12.50;;;;;11.52;67.38;101013.53;5008372;28;45588;-60
2023/04/25 07:28:43;;;;;;;;;14.00;13.25;;;;;11.54;67.71;101013.50;4996724;28;45371;-60
2023/04/25 07:31:08;;;;;;;;;14.25;13.75;;;;;11.52;67.76;101026.91;5004610;28;46246;-60
2023/04/25 07:33:34;;;;;;;;;13.75;13.50;;;;;11.45;67.51;101036.06;5017178;28;45349;-60
2023/04/25 07:36:00;;;;;;;;;12.00;11.25;;;;;11.42;67.79;101030.81;4997043;28;45540;-60
2023/04/25 07:38:25;;;;;;;;;15.00;14.50;;;;;11.26;67.70;101017.91;4990211;28;45465;-59
2023/04/25 07:40:50;;;;;;;;;15.00;12.50;;;;;11.34;68.13;101036.38;4999042;28;46423;-59
2023/04/25 07:43:19;;;;;;;;;18.50;16.25;;;;;11.21;67.99;101009.16;4987422;28;45664;-59
2023/04/25 07:45:44;;;;;;;;;18.00;16.00;;;;;11.40;67.87;101049.56;5007205;28;45407;-59
2023/04/25 07:48:10;;;;;;;;;21.50;19.00;;;;;11.29;67.78;101038.31;4990486;28;45416;-60
2023/04/25 07:50:36;;;;;;;;;22.50;21.75;;;;;11.26;67.84;101041.06;4999484;28;45381;-59
2023/04/25 07:53:01;;;;;;;;;19.50;18.00;;;;;11.31;67.67;101063.22;5000524;28;45343;-60
2023/04/25 07:55:27;;;;;;;;;23.75;21.00;;;;;11.20;68.17;101054.66;5000112;28;45261;-60
2023/04/25 07:57:52;;;;;;;;;26.25;19.75;;;;;11.11;67.76;101045.97;4993781;28;45389;-59
2023/04/25 08:00:18;;;;;;;;;17.25;17.00;;;;;11.28;67.73;101074.00;5000930;28;45578;-60
2023/04/25 08:02:43;;;;;;;;;25.50;20.00;;;;;11.09;67.66;101045.16;5011780;28;45386;-59
2023/04/25 08:05:11;;;;;;;;;23.75;19.25;;;;;11.24;67.05;101081.22;5007336;28;45360;-60
2023/04/25 08:07:38;;;;;;;;;23.00;18.50;;;;;11.08;67.00;101064.75;5008531;28;46142;-60
2023/04/25 08:10:05;;;;;;;;;16.50;16.00;;;;;11.18;67.13;101086.75;5006197;28;45570;-60
2023/04/25 08:12:30;;;;;;;;;17.50;15.00;;;;;11.10;66.54;101084.28;5007410;28;46373;-60
2023/04/25 08:14:56;;;;;;;;;25.50;20.25;;;;;11.15;66.65;101102.88;5003426;28;45405;-59
2023/04/25 08:17:24;;;;;;;;;15.25;14.50;;;;;11.07;66.33;101097.72;5019180;28;45304;-60
2023/04/25 08:19:49;;;;;;;;;13.25;12.00;;;;;11.01;66.83;101089.91;4988654;28;47644;-59
2023/04/25 08:22:17;;;;;;;;;17.75;14.00;;;;;10.83;66.53;101051.25;4981536;28;45517;-60
2023/04/25 08:24:42;;;;;;;;;16.50;13.25;;;;;10.85;66.78;101053.88;4981008;28;45396;-60
2023/04/25 08:27:08;;;;;;;;;13.75;10.25;;;;;11.25;66.54;101114.16;4996108;28;45424;-60
2023/04/25 08:29:34;;;;;;;;;13.00;12.00;;;;;11.11;65.91;101086.06;5004490;28;46164;-59
2023/04/25 08:32:00;;;;;;;;;15.00;10.75;;;;;11.08;65.15;101090.63;4990095;28;45552;-59
2023/04/25 08:34:26;;;;;;;;;14.00;12.75;;;;;11.12;65.65;101093.13;5010525;28;45374;-60
2023/04/25 08:36:52;;;;;;;;;18.50;12.50;;;;;11.33;65.28;101136.19;4965786;28;45504;-59
2023/04/25 08:39:17;;;;;;;;;22.25;16.25;;;;;10.97;64.84;101072.22;4999465;28;45369;-60
2023/04/25 08:41:44;;;;;;;;;18.75;16.00;;;;;11.28;64.89;101135.47;4989172;28;45599;-59
2023/04/25 08:44:11;;;;;;;;;13.50;10.75;;;;;11.09;64.57;101097.69;4993977;28;45453;-60
2023/04/25 08:46:39;;;;;;;;;12.00;10.75;;;;;11.01;65.32;101094.34;5010226;28;45523;-60
2023/04/25 08:49:05;;;;;;;;;11.75;11.25;;;;;11.20;65.08;101114.28;4983577;28;47554;-60
2023/04/25 08:51:32;;;;;;;;;17.75;15.75;;;;;11.27;64.74;101123.88;5011513;28;45405;-60
2023/04/25 08:54:21;;;;;;;;;13.75;13.25;;;;;11.30;65.09;101126.47;4982692;28;45571;-60
2023/04/25 08:56:47;;;;;;;;;12.00;10.00;;;;;11.11;64.54;101101.22;4999350;28;45519;-59
2023/04/25 08:59:13;;;;;;;;;16.25;11.25;;;;;11.12;64.85;101110.97;5003302;28;46590;-60
2023/04/25 09:01:39;;;;;;;;;12.25;11.25;;;;;11.21;64.91;101125.84;4984290;28;45702;-60
2023/04/25 09:04:05;;;;;;;;;16.75;13.50;;;;;11.17;65.03;101129.53;4997740;28;45551;-60
2023/04/25 09:06:33;;;;;;;;;13.00;11.00;;;;;11.19;64.69;101133.03;5000041;28;45323;-60
2023/04/25 09:09:06;;;;;;;;;11.25;11.00;;;;;11.36;64.29;101164.63;5009190;28;45600;-59
2023/04/25 09:11:32;;;;;;;;;13.00;13.00;;;;;11.28;64.75;101151.50;5003569;28;45262;-59
2023/04/25 09:14:15;;;;;;;;;15.25;13.50;;;;;11.45;64.74;101164.38;5008040;28;45429;-59
2023/04/25 09:16:56;;;;;;;;;10.00;8.75;;;;;11.55;64.55;101187.22;5006032;28;45365;-60
2023/04/25 09:19:47;;;;;;;;;11.00;10.00;;;;;11.19;64.80;101130.38;5009015;28;46195;-60
2023/04/25 09:22:13;;;;;;;;;14.50;12.25;;;;;11.55;64.77;101181.88;5007950;28;45350;-60
2023/04/25 09:24:44;;;;;;;;;15.25;13.75;;;;;11.61;65.16;101200.44;4986492;28;45443;-60
2023/04/25 09:27:12;;;;;;;;;17.00;15.00;;;;;11.67;64.87;101202.03;4964383;28;45520;-59
2023/04/25 09:29:39;;;;;;;;;18.25;14.25;;;;;11.46;64.18;101172.34;5002158;28;45464;-60
2023/04/25 09:32:22;;;;;;;;;15.25;14.00;;;;;11.65;64.44;101206.56;4996006;28;45764;-62
2023/04/25 09:34:52;;;;;;;;;17.50;13.00;;;;;11.47;64.93;101187.44;4986147;28;45430;-60
2023/04/25 09:37:23;;;;;;;;;11.50;10.00;;;;;11.41;64.40;101184.97;4995242;28;45896;-60
2023/04/25 09:39:51;;;;;;;;;12.50;12.00;;;;;11.70;64.39;101225.16;4995065;28;45432;-60
2023/04/25 09:42:17;;;;;;;;;11.00;11.00;;;;;11.42;64.11;101180.50;4993662;28;45642;-60
2023/04/25 09:44:45;;;;;;;;;9.00;8.00;;;;;11.45;64.02;101196.44;4987881;28;45713;-60
2023/04/25 09:47:12;;;;;;;;;10.00;8.00;;;;;11.52;63.83;101207.84;5004320;28;45469;-59
2023/04/25 09:49:42;;;;;;;;;12.00;10.75;;;;;11.44;63.72;101186.66;4985100;28;46496;-59
2023/04/25 09:52:12;;;;;;;;;13.00;11.50;;;;;11.43;63.76;101180.44;5003787;28;45361;-60
2023/04/25 09:54:38;;;;;;;;;14.00;10.75;;;;;11.45;62.83;101188.44;4989957;28;45477;-59
2023/04/25 09:57:11;;;;;;;;;10.00;9.75;;;;;11.49;63.69;101192.75;4989578;28;45428;-60
2023/04/25 09:59:41;;;;;;;;;11.00;10.50;;;;;11.43;63.74;101193.81;5009785;28;45688;-60
2023/04/25 10:02:09;;;;;;;;;5.25;5.00;;;;;11.43;63.22;101199.16;4999460;28;45381;-60
2023/04/25 10:04:35;;;;;;;;;14.25;12.25;;;;;11.43;62.94;101217.00;4989531;28;45409;-59
2023/04/25 10:07:05;;;;;;;;;10.75;10.00;;;;;11.41;63.16;101210.81;4983185;28;46031;-60
2023/04/25 10:09:35;;;;;;;;;15.25;13.25;;;;;11.62;62.96;101246.75;4989860;28;47005;-59
2023/04/25 10:12:03;;;;;;;;;11.75;11.00;;;;;11.38;63.62;101202.91;4981893;28;45676;-59
2023/04/25 10:14:30;;;;;;;;;12.25;11.00;;;;;11.65;62.78;101252.03;4994748;28;45531;-60
2023/04/25 10:16:57;;;;;;;;;11.25;10.25;;;;;11.52;63.48;101221.22;4982193;28;45533;-59
2023/04/25 10:19:24;;;;;;;;;16.00;12.00;;;;;11.68;62.74;101238.56;4994234;28;46370;-60
2023/04/25 10:22:01;;;;;;;;;11.75;10.25;;;;;11.63;62.45;101219.97;4985008;28;45362;-59
2023/04/25 10:24:27;;;;;;;;;11.75;11.75;;;;;11.60;62.74;101206.69;4969858;28;45350;-59
2023/04/25 10:26:54;;;;;;;;;10.00;10.00;;;;;11.81;62.19;101233.72;5004880;28;45579;-59
2023/04/25 10:29:26;;;;;;;;;9.50;9.00;;;;;11.65;62.31;101209.22;4985852;28;48412;-59
2023/04/25 10:31:52;;;;;;;;;17.75;13.00;;;;;11.69;62.48;101208.22;4989635;28;45343;-60
2023/04/25 10:34:18;;;;;;;;;11.50;9.25;;;;;11.74;62.59;101210.75;4990238;28;45293;-60
2023/04/25 10:36:51;;;;;;;;;12.00;9.00;;;;;11.73;62.27;101211.66;4981131;28;45626;-59
2023/04/25 10:39:23;;;;;;;;;11.00;9.75;;;;;11.78;61.88;101215.09;4998416;28;46186;-60
2023/04/25 10:41:55;;;;;;;;;15.25;11.25;;;;;11.91;61.76;101232.56;5008087;28;45622;-59
2023/04/25 10:44:20;;;;;;;;;13.75;11.75;;;;;11.98;61.33;101255.53;5012163;28;45411;-60
2023/04/25 10:46:46;;;;;;;;;11.75;9.25;;;;;11.81;61.55;101223.91;5010481;28;45372;-60
2023/04/25 10:49:30;;;;;;;;;12.25;9.50;;;;;11.99;61.81;101256.41;4986273;28;45982;-60
2023/04/25 10:52:24;;;;;;;;;11.00;11.00;;;;;12.04;61.52;101258.03;5011819;28;45405;-60
2023/04/25 10:54:57;;;;;;;;;7.50;7.00;;;;;12.00;61.94;101242.97;5010827;28;45466;-59
2023/04/25 10:57:29;;;;;;;;;10.75;8.50;;;;;12.07;61.86;101253.50;4980506;28;46342;-59
2023/04/25 10:59:58;;;;;;;;;10.00;7.00;;;;;12.11;61.40;101256.06;4986427;28;47796;-59
2023/04/25 11:02:27;;;;;;;;;10.75;8.00;;;;;11.99;61.57;101237.69;4979494;28;45755;-60
2023/04/25 11:04:53;;;;;;;;;11.50;10.00;;;;;12.13;61.21;101255.97;5011918;28;45459;-60
2023/04/25 11:07:38;;;;;;;;;8.75;7.00;;;;;12.22;60.71;101264.59;4971975;28;45943;-60
2023/04/25 11:10:07;;;;;;;;;10.00;8.00;;;;;12.20;61.11;101270.94;4984593;28;47610;-60
2023/04/25 11:12:32;;;;;;;;;11.50;9.00;;;;;11.93;60.80;101216.44;4970088;28;45506;-59
2023/04/25 11:15:00;;;;;;;;;7.25;7.25;;;;;12.01;60.54;101239.41;4982670;28;45397;-59